Impacts METAR Board
IDs:

KJFK - New York/Kennedy Int, NY, US

Updated at: 1900 UTC 02 Oct 2022
Potential Impact None Slight Moderate High
Time 02/07Z 02/08Z 02/09Z 02/10Z 02/11Z 02/12Z 02/13Z 02/14Z 02/15Z 02/16Z 02/17Z 02/18Z 02/19Z
Temp59 59 59 59 60 60 59 57 58 57 56 56 54
Dewpt50 49 48 44 43 48 51 54 53 52 51 49 49
Altim29.95 29.95 29.98 29.97 29.98 30.01 30.02 30.03 30.06 30.09 30.09 30.10 30.10
VIS10 10 10 10 10 10 10 5 10 5 8 6 3
CIG22 26 28 43 33 33 26 18 25 26 23 29 40
CoverOVCOVCOVCOVCOVCOVCOVCOVCOVCOVCOVCOVCOVC
FltCatMVFRMVFRMVFRVFRVFRVFRMVFRMVFRMVFRMVFRMVFRMVFRMVFR
WX---------------RA BR--HZ-RA-RARA
WDir40404050505050304040304030
WSpd17 19 20 25 18 20 24 19 18 13 14 19 15
WGst27 29 30 32 24 31 31 27 26 -- 22 28 --
Raw hourly METARs
KJFK 020651Z 04017G27KT 10SM BKN022 OVC029 15/10 A2995 RMK AO2 PK WND 03027/0642 SLP141 T01500100
KJFK 020751Z 04019G29KT 10SM BKN026 OVC034 15/09 A2995 RMK AO2 PK WND 04029/0749 SLP140 T01500094
KJFK 020851Z 04020G30KT 10SM BKN028 OVC036 15/09 A2998 RMK AO2 PK WND 04030/0845 SLP151 T01500089 53006
KJFK 020951Z 05025G32KT 10SM BKN043 BKN060 OVC080 15/07 A2997 RMK AO2 PK WND 06033/0933 RAB38E44 SLP147 P0000 T01500067
KJFK 021051Z 05018G24KT 10SM BKN033 OVC042 16/06 A2998 RMK AO2 PK WND 06031/1008 SLP153 T01560061
KJFK 021151Z 05020G31KT 10SM OVC033 16/09 A3001 RMK AO2 PK WND 05033/1132 SLP162 60000 70030 T01560089 10156 20150 53010
KJFK 021251Z 05024G31KT 10SM OVC026 15/11 A3002 RMK AO2 PK WND 05033/1216 RAB17E38 SLP164 P0000 T01500106
KJFK 021351Z 03019G27KT 5SM -RA BR BKN018 OVC025 14/12 A3003 RMK AO2 PK WND 03031/1325 RAB04 SLP170 P0001 T01390122
KJFK 021451Z 04018G26KT 10SM OVC025 14/12 A3006 RMK AO2 PK WND 03029/1428 RAE02 SLP177 P0000 60001 T01440117 53016
KJFK 021551Z 04013KT 5SM HZ OVC026 14/11 A3009 RMK AO2 PK WND 04030/1504 RAB26E43 SLP187 P0000 T01390111
KJFK 021651Z 03014G22KT 8SM -RA BKN023 OVC032 13/11 A3009 RMK AO2 PK WND 03026/1619 RAB17 SLP190 P0001 T01330106
KJFK 021751Z 04019G28KT 6SM -RA BKN029 OVC035 13/09 A3010 RMK AO2 PK WND 02028/1745 SLP193 P0000 60002 T01330094 10156 20133 51016
KJFK 021851Z 03015KT 3SM RA FEW029 BKN040 OVC055 12/09 A3010 RMK AO2 PK WND 03028/1753 SLP193 P0008 T01220094



Page loaded:  19:37 UTC  |   12:37 PM Pacific  |   01:37 PM Mountain  |   02:37 PM Central  |   03:37 PM Eastern

 

ADVISORIES

FORECASTS

FORECASTS

OBSERVATIONS

USER TOOLS

ABOUT US